ADDS METAR Data INFO
IDs: Format: Raw Decoded Include TAF

Data at: 1753 UTC 15 Dec 2017

KFVE 151653Z AUTO 25014G19KT 10SM CLR M14/M20 A2975 RMK AO2 SLP098 T11441200
KFVE 151553Z AUTO 25011KT 10SM CLR M16/M21 A2976 RMK AO2 SLP099 T11561211
KFVE 151453Z AUTO 25014G17KT 10SM CLR M17/M22 A2975 RMK AO2 SLP096 T11671217 51025
KFVE 151353Z AUTO 25010G19KT 10SM CLR M18/M23 A2973 RMK AO2 SLP090 T11831228
KFVE 151253Z AUTO 22007KT 10SM CLR M19/M23 A2970 RMK AO2 SLP082 T11941228
KFVE 151153Z AUTO 25012G19KT 10SM CLR M19/M22 A2967 RMK AO2 SLP073 T11891222 11172 21189 51028
KFVE 151053Z AUTO 25013KT 10SM CLR M19/M22 A2965 RMK AO2 SLP064 T11891222
KFVE 150953Z AUTO 25013KT 10SM CLR M18/M22 A2962 RMK AO2 SLP054 T11831217
KFVE 150853Z AUTO 25018G25KT 10SM CLR M18/M22 A2959 RMK AO2 SLP044 T11831217 51022
KFVE 150753Z AUTO 26016KT 10SM BKN110 M18/M21 A2958 RMK AO2 PK WND 26027/0708 SLP040 T11781211
KFVE 150653Z AUTO 27017G24KT 10SM BKN120 M17/M21 A2956 RMK AO2 PK WND 27032/0619 SLP032 T11721211
KFVE 150553Z AUTO 26021G27KT 10SM CLR M17/M21 A2952 RMK AO2 PK WND 25027/0553 SLP020 60000 T11721206 11161 21172 53016
KFVE 150453Z AUTO 26017G25KT 10SM CLR M17/M20 A2950 RMK AO2 SLP013 T11671200 411391183
KFVE 150441Z AUTO 26013G23KT 10SM SCT027 M17/M20 A2950 RMK AO2 T11671200
KFVE 150353Z AUTO 26012G18KT 10SM OVC026 M16/M19 A2949 RMK AO2 SLP009 T11611194
KFVE 150253Z AUTO 26011G20KT 10SM OVC025 M16/M19 A2948 RMK AO2 SLP004 60000 T11611194 53012
KFVE 150153Z AUTO 26014KT 5SM HZ OVC026 M17/M20 A2946 RMK AO2 SNB0057E32 SLP998 P0000 T11671200
KFVE 150138Z AUTO 25013G20KT 6SM HZ BKN026 OVC036 M17/M20 A2946 RMK AO2 SNB0057E32 P0000 T11671200
KFVE 150053Z AUTO 26015G22KT 10SM OVC046 M17/M20 A2945 RMK AO2 SLP995 T11671200
KFVE 150012Z AUTO 25017G25KT 10SM FEW025 SCT030 BKN070 M17/M21 A2944 RMK AO2 T11671206
KFVE 150004Z AUTO 25017G22KT 6SM HZ BKN025 BKN031 M17/M21 A2944 RMK AO2 T11671206
KFVE 142353Z AUTO 25017G24KT 10SM SCT025 SCT038 M17/M21 A2944 RMK AO2 PK WND 26026/2306 SLP992 T11671206 11161 21172 51022
KFVE 142253Z AUTO 26013G22KT 10SM BKN120 M17/M21 A2942 RMK AO2 PK WND 26026/2243 SLP984 T11671206
KFVE 142153Z AUTO 25017G23KT 10SM OVC095 M17/M21 A2940 RMK AO2 SLP977 T11721211
KFVE 142053Z AUTO 26012G21KT 10SM FEW033 BKN110 M17/M21 A2937 RMK AO2 SLP968 T11721211 53014
KFVE 141953Z AUTO 25014KT 10SM OVC030 M17/M21 A2935 RMK AO2 SLP960 T11671211
KFVE 141948Z AUTO 24015G21KT 10SM OVC028 M17/M21 A2935 RMK AO2
KFVE 141853Z AUTO 25012G18KT 9SM SCT025 OVC039 M17/M21 A2933 RMK AO2 SLP953 T11671206
KFVE 141832Z AUTO 25009G20KT 8SM FEW024 SCT030 OVC039 M17/M21 A2933 RMK AO2 T11671206
KFVE 141753Z AUTO 24013G21KT 9SM BKN028 OVC035 M17/M21 A2932 RMK AO2 SLP949 T11671206 11167 21183 51003
KFVE 141723Z AUTO 25014G25KT 9SM BKN028 OVC035 M17/M21 A2931 RMK AO2 T11671211
KFVE 141702Z AUTO 25015G21KT 10SM OVC031 M17/M21 A2931 RMK AO2 T11671211
KFVE 141653Z AUTO 24016G22KT 10SM BKN028 OVC034 M17/M21 A2932 RMK AO2 SLP947 T11671211
KFVE 141553Z AUTO 24015G21KT 10SM FEW023 SCT029 SCT034 M18/M22 A2932 RMK AO2 SLP950 T11781217
KFVE 141453Z AUTO 26011KT 10SM CLR M18/M22 A2931 RMK AO2 SLP945 T11831222 53028
KFVE 141353Z AUTO 25017G22KT 10SM CLR M18/M22 A2928 RMK AO2 SLP934 T11831222
KFVE 141253Z AUTO 26015G24KT 10SM CLR M18/M22 A2925 RMK AO2 SLP926 T11831222
KFVE 141153Z AUTO 26018G22KT 10SM FEW028 M18/M22 A2922 RMK AO2 PK WND 24027/1118 SLP916 60000 70011 T11831217 11144 21183 53038
KFVE 141138Z AUTO 24016G23KT 10SM FEW028 M18/M22 A2921 RMK AO2 PK WND 24027/1118 T11831217
KFVE 141053Z AUTO 25018G26KT 9SM OVC028 M18/M22 A2918 RMK AO2 PK WND 26029/0958 SLP901 T11781217
KFVE 141031Z AUTO 24018G26KT 9SM BKN027 M18/M22 A2917 RMK AO2 PK WND 26029/0958 T11781217
KFVE 140953Z AUTO 24016G25KT 10SM BKN043 M17/M21 A2914 RMK AO2 PK WND 25027/0913 SLP887 T11721206
KFVE 140900Z AUTO 25016G22KT 10SM FEW024 OVC032 M17/M19 A2911 RMK AO2 T11671194
KFVE 140853Z AUTO 26011G22KT 8SM BKN024 OVC031 M17/M19 A2911 RMK AO2 PK WND 24028/0839 UPE0758B39E49SNB0758E0759B29E39 SLP873 P0000 60000 T11671194 53030
KFVE 140753Z AUTO 26019G29KT 3SM UP OVC026 M16/M18 A2907 RMK AO2 PK WND 27029/0753 UPB46 SLP861 P0000 T11561183
KFVE 140653Z AUTO 26014G25KT 9SM OVC023 M15/M18 A2904 RMK AO2 SLP849 T11501178